createdAt,value
2019-05-18T00:00:36.561Z,88.59
2019-05-18T00:01:36.528Z,88.70
2019-05-18T00:02:36.505Z,88.33
2019-05-18T00:03:36.535Z,88.08
2019-05-18T00:04:36.533Z,88.12
2019-05-18T00:05:36.483Z,88.39
2019-05-18T00:06:36.458Z,88.08
2019-05-18T00:07:36.479Z,88.70
2019-05-18T00:08:36.482Z,88.02
2019-05-18T00:09:36.430Z,88.33
2019-05-18T00:10:36.436Z,87.92
2019-05-18T00:11:36.415Z,88.37
2019-05-18T00:12:36.408Z,88.57
2019-05-18T00:13:36.420Z,88.98
2019-05-18T00:14:36.406Z,89.18
2019-05-18T00:15:36.380Z,89.50
2019-05-18T00:16:36.360Z,89.70
2019-05-18T00:17:36.363Z,89.59
2019-05-18T00:18:36.518Z,89.50
2019-05-18T00:19:36.323Z,89.59
2019-05-18T00:20:36.323Z,89.39
2019-05-18T00:21:36.330Z,89.23
2019-05-18T00:22:36.307Z,89.64
2019-05-18T00:23:36.324Z,89.84
2019-05-18T00:24:36.275Z,89.84
2019-05-18T00:25:36.276Z,89.89
2019-05-18T00:26:36.281Z,89.98
2019-05-18T00:27:36.247Z,90.60
2019-05-18T00:28:36.279Z,90.70
2019-05-18T00:29:36.234Z,91.31
2019-05-18T00:30:36.218Z,91.93
2019-05-18T00:31:36.232Z,91.63
2019-05-18T00:32:36.202Z,91.83
2019-05-18T00:33:36.197Z,91.63
2019-05-18T00:34:36.164Z,92.03
2019-05-18T00:35:36.170Z,92.24
2019-05-18T00:36:36.237Z,92.03
2019-05-18T00:37:36.164Z,93.06
2019-05-18T00:38:36.156Z,93.06
2019-05-18T00:39:36.106Z,93.30
2019-05-18T00:40:36.108Z,93.37
2019-05-18T00:41:36.198Z,92.96
2019-05-18T00:42:36.087Z,93.06
2019-05-18T00:43:36.096Z,92.38
2019-05-18T00:44:36.071Z,92.08
2019-05-18T00:45:36.047Z,92.34
2019-05-18T00:46:36.045Z,91.97
2019-05-18T00:47:41.360Z,92.22
2019-05-18T00:48:36.020Z,91.97
2019-05-18T00:49:36.021Z,92.94
2019-05-18T00:50:36.012Z,93.04
2019-05-18T00:51:35.974Z,92.94
2019-05-18T00:52:35.971Z,93.96
2019-05-18T00:53:36.010Z,93.86
2019-05-18T00:54:35.975Z,93.86
2019-05-18T00:55:35.941Z,93.96
2019-05-18T00:56:35.934Z,93.96
2019-05-18T00:57:35.926Z,94.07
2019-05-18T00:58:35.936Z,94.27
2019-05-18T00:59:35.915Z,94.17
2019-05-18T01:00:35.917Z,94.37
2019-05-18T01:01:35.889Z,93.96
2019-05-18T01:02:35.865Z,93.96
2019-05-18T01:03:35.851Z,94.68
2019-05-18T01:04:35.867Z,94.93
2019-05-18T01:05:38.010Z,94.17
2019-05-18T01:06:35.830Z,94.01
2019-05-18T01:07:35.810Z,94.11
2019-05-18T01:08:35.834Z,94.42
2019-05-18T01:09:35.838Z,94.93
2019-05-18T01:10:35.798Z,94.15
2019-05-18T01:11:35.803Z,94.05
2019-05-18T01:12:35.763Z,93.74
2019-05-18T01:13:35.771Z,94.05
2019-05-18T01:14:35.774Z,94.51
2019-05-18T01:15:35.741Z,95.79
2019-05-18T01:16:35.723Z,95.79
2019-05-18T01:17:35.703Z,95.90
2019-05-18T01:18:35.694Z,96.00
2019-05-18T01:19:35.749Z,95.79
2019-05-18T01:20:35.665Z,95.79
2019-05-18T01:21:35.664Z,96.82
2019-05-18T01:22:35.636Z,96.62
2019-05-18T01:23:35.627Z,96.31
2019-05-18T01:24:35.645Z,96.82
2019-05-18T01:25:35.638Z,96.62
2019-05-18T01:26:35.609Z,96.72
2019-05-18T01:27:35.599Z,96.35
2019-05-18T01:28:35.594Z,96.87
2019-05-18T01:29:35.606Z,96.56
2019-05-18T01:30:35.567Z,96.77
2019-05-18T01:31:35.568Z,96.77
2019-05-18T01:32:35.542Z,96.45
2019-05-18T01:33:35.533Z,96.56
2019-05-18T01:34:35.559Z,96.97
2019-05-18T01:35:35.522Z,97.33
2019-05-18T01:36:35.499Z,97.91
2019-05-18T01:56:20.432Z,96.73
2019-05-18T01:57:21.380Z,96.98
2019-05-18T01:58:21.370Z,96.47
2019-05-18T01:59:21.347Z,96.26
2019-05-18T02:00:21.413Z,96.37
2019-05-18T02:01:21.343Z,96.47
2019-05-18T02:02:21.339Z,96.67
2019-05-18T02:03:21.345Z,97.04
2019-05-18T02:04:21.324Z,96.63
2019-05-18T02:05:21.313Z,96.26
2019-05-18T02:06:21.321Z,96.26
2019-05-18T02:07:21.276Z,96.63
2019-05-18T02:08:21.259Z,96.01
2019-05-18T02:09:21.284Z,95.70
2019-05-18T02:10:21.277Z,95.50
2019-05-18T02:11:21.225Z,95.09
2019-05-18T02:12:21.217Z,94.52
2019-05-18T02:13:21.209Z,94.83
2019-05-18T02:14:21.190Z,95.18
2019-05-18T02:15:21.200Z,94.15
2019-05-18T02:16:21.186Z,94.26
2019-05-18T02:17:21.177Z,95.07
2019-05-18T02:18:28.664Z,95.02
2019-05-18T02:19:21.154Z,95.53
2019-05-18T02:20:21.148Z,96.10
2019-05-18T02:21:21.229Z,96.62
2019-05-18T02:22:21.097Z,96.72
2019-05-18T02:23:21.100Z,96.72
2019-05-18T02:24:21.079Z,96.92
2019-05-18T02:25:21.082Z,97.33
2019-05-18T02:26:21.063Z,97.03
2019-05-18T02:27:21.053Z,97.03
2019-05-18T02:28:21.038Z,96.92
2019-05-18T02:29:21.028Z,96.92
2019-05-18T02:30:21.045Z,97.03
2019-05-18T02:31:21.018Z,97.13
2019-05-18T02:32:21.000Z,97.44
2019-05-18T02:33:21.564Z,97.03
2019-05-18T02:34:20.990Z,96.72
2019-05-18T02:35:21.009Z,96.66
2019-05-18T02:36:20.992Z,96.82
2019-05-18T02:37:20.953Z,96.87
2019-05-18T02:38:20.963Z,96.97
2019-05-18T02:39:20.947Z,97.38
2019-05-18T02:40:20.919Z,97.07
2019-05-18T02:41:20.962Z,97.33
2019-05-18T02:42:20.961Z,97.48
2019-05-18T02:43:20.900Z,97.48
2019-05-18T02:44:20.883Z,97.58
2019-05-18T02:45:20.882Z,97.38
2019-05-18T02:46:20.893Z,97.79
2019-05-18T02:47:20.838Z,97.17
2019-05-18T02:48:20.828Z,97.48
2019-05-18T02:49:20.815Z,97.69
2019-05-18T02:50:20.806Z,97.99
2019-05-18T02:51:20.820Z,98.30
2019-05-18T02:52:20.810Z,98.16
2019-05-18T02:53:20.811Z,98.16
2019-05-18T02:54:20.784Z,97.74
2019-05-18T02:55:20.781Z,97.33
2019-05-18T02:56:21.104Z,97.54
2019-05-18T02:57:20.728Z,97.13
2019-05-18T02:58:20.727Z,97.23
2019-05-18T02:59:20.703Z,97.48
2019-05-18T03:00:20.717Z,97.07
2019-05-18T03:01:20.734Z,97.58
2019-05-18T03:02:20.684Z,97.58
2019-05-18T03:03:20.736Z,97.89
2019-05-18T03:04:20.720Z,97.89
2019-05-18T03:05:20.664Z,97.89
2019-05-18T03:06:20.635Z,98.10
2019-05-18T03:07:20.617Z,97.79
2019-05-18T03:08:20.609Z,97.69
2019-05-18T03:09:20.596Z,98.20
2019-05-18T03:10:20.596Z,98.10
2019-05-18T03:11:20.582Z,98.30
2019-05-18T03:12:20.584Z,97.58
2019-05-18T03:13:20.571Z,97.69
2019-05-18T03:14:20.582Z,98.10
2019-05-18T03:15:20.552Z,97.69
2019-05-18T03:16:20.649Z,97.99
2019-05-18T03:17:20.512Z,98.61
2019-05-18T03:18:20.519Z,97.99
2019-05-18T03:19:20.497Z,98.20
2019-05-18T03:20:20.504Z,97.99
2019-05-18T03:21:20.482Z,98.41
2019-05-18T03:22:20.471Z,98.92
2019-05-18T03:23:20.452Z,98.41
2019-05-18T03:24:20.455Z,97.69
2019-05-18T03:25:20.464Z,97.99
2019-05-18T03:26:20.414Z,97.69
2019-05-18T03:27:20.445Z,97.79
2019-05-18T03:28:20.434Z,97.89
2019-05-18T03:29:20.379Z,98.14
2019-05-18T03:30:20.406Z,98.35
2019-05-18T03:31:20.375Z,98.35
2019-05-18T03:32:20.389Z,98.14
2019-05-18T03:33:20.394Z,98.76
2019-05-18T03:34:20.341Z,98.10
2019-05-18T03:35:20.437Z,98.10
2019-05-18T03:36:20.333Z,97.99
2019-05-18T03:37:20.306Z,97.89
2019-05-18T03:38:20.283Z,98.92
2019-05-18T03:39:20.282Z,98.20
2019-05-18T03:40:20.254Z,98.05
2019-05-18T03:41:20.254Z,98.05
2019-05-18T03:42:20.253Z,97.54
2019-05-18T03:43:20.236Z,97.54
2019-05-18T03:44:20.229Z,97.74
2019-05-18T03:45:20.201Z,97.33
2019-05-18T03:46:23.788Z,97.39
2019-05-18T03:47:20.208Z,96.78
2019-05-18T03:48:20.170Z,96.88
2019-05-18T03:49:26.809Z,96.98
2019-05-18T03:50:20.164Z,96.78
2019-05-18T03:51:20.141Z,96.67
2019-05-18T03:52:20.138Z,96.82
2019-05-18T03:53:20.103Z,96.26
2019-05-18T03:54:20.133Z,96.26
2019-05-18T03:55:20.112Z,95.44
2019-05-18T03:57:29.377Z,96.26
2019-05-18T03:58:30.297Z,96.67
2019-05-18T03:59:30.277Z,95.44
2019-05-18T04:00:30.231Z,96.16
2019-05-18T04:01:30.243Z,95.75
2019-05-18T04:02:30.247Z,96.26
2019-05-18T04:03:30.231Z,95.86
2019-05-18T04:04:30.213Z,96.22
2019-05-18T04:05:30.225Z,95.65
2019-05-18T04:06:30.189Z,95.65
2019-05-18T04:07:30.197Z,95.34
2019-05-18T04:08:30.156Z,95.54
2019-05-18T04:09:30.143Z,95.54
2019-05-18T04:10:30.135Z,96.12
2019-05-18T04:11:30.118Z,95.86
2019-05-18T04:12:30.130Z,95.14
2019-05-18T04:13:30.159Z,94.62
2019-05-18T04:14:30.108Z,94.83
2019-05-18T04:15:30.119Z,95.34
2019-05-18T04:16:30.107Z,95.14
2019-05-18T04:17:30.069Z,94.83
2019-05-18T04:18:30.048Z,94.83
2019-05-18T04:19:44.694Z,94.83
2019-05-18T04:20:30.525Z,94.93
2019-05-18T04:21:30.018Z,95.03
2019-05-18T04:22:30.015Z,95.14
2019-05-18T04:23:30.008Z,95.54
2019-05-18T04:24:29.987Z,95.75
2019-05-18T04:25:30.029Z,95.54
2019-05-18T04:26:29.963Z,95.75
2019-05-18T04:27:29.956Z,95.54
2019-05-18T04:28:29.986Z,95.65
2019-05-18T04:29:29.923Z,95.75
2019-05-18T04:30:29.919Z,95.54
2019-05-18T04:31:32.407Z,95.54
2019-05-18T04:32:29.916Z,96.26
2019-05-18T04:33:29.915Z,95.86
2019-05-18T04:34:29.890Z,95.81
2019-05-18T04:35:29.889Z,95.75
2019-05-18T04:36:29.845Z,96.26
2019-05-18T04:37:29.841Z,95.44
2019-05-18T04:38:29.850Z,95.65
2019-05-18T04:39:29.804Z,95.86
2019-05-18T04:40:29.812Z,95.65
2019-05-18T04:41:29.792Z,95.81
2019-05-18T04:42:29.797Z,95.91
2019-05-18T04:43:29.795Z,95.61
2019-05-18T04:44:29.765Z,95.05
2019-05-18T04:45:29.762Z,95.36
2019-05-18T04:46:29.814Z,94.99
2019-05-18T04:47:29.735Z,94.48
2019-05-18T04:48:29.755Z,94.64
2019-05-18T04:49:29.707Z,94.95
2019-05-18T04:50:29.715Z,94.84
2019-05-18T04:51:29.688Z,94.23
2019-05-18T04:52:29.674Z,93.92
2019-05-18T04:53:29.704Z,94.08
2019-05-18T04:54:29.665Z,93.57
2019-05-18T04:55:29.656Z,92.71
2019-05-18T04:56:29.632Z,92.81
2019-05-18T04:57:29.675Z,93.22
2019-05-18T04:58:29.639Z,91.95
2019-05-18T04:59:29.621Z,91.85
2019-05-18T05:00:29.582Z,92.01
2019-05-18T05:01:29.585Z,90.99
2019-05-18T05:02:29.565Z,91.50
2019-05-18T05:03:29.575Z,90.33
2019-05-18T05:04:29.543Z,90.53
2019-05-18T05:05:29.536Z,89.88
2019-05-18T05:06:29.532Z,89.37
2019-05-18T05:07:29.536Z,89.37
2019-05-18T05:08:29.519Z,89.12
2019-05-18T05:09:29.491Z,88.31
2019-05-18T05:10:29.485Z,88.17
2019-05-18T05:11:29.464Z,87.24
2019-05-18T05:12:29.456Z,87.10
2019-05-18T05:13:29.483Z,86.65
2019-05-18T05:14:29.437Z,86.04
2019-05-18T05:15:29.440Z,85.28
2019-05-18T05:16:29.424Z,85.49
2019-05-18T05:17:29.407Z,85.39
2019-05-18T05:18:29.438Z,84.53
2019-05-18T05:19:29.378Z,83.68
2019-05-18T05:20:29.387Z,82.76
2019-05-18T05:21:29.347Z,82.76
2019-05-18T05:22:29.364Z,82.62
2019-05-18T05:23:29.400Z,82.42
2019-05-18T05:24:29.330Z,81.26
2019-05-18T05:25:29.310Z,82.28
2019-05-18T05:26:29.313Z,81.06
2019-05-18T05:27:29.297Z,80.62
2019-05-18T05:28:29.326Z,80.82
2019-05-18T05:29:29.273Z,79.70
2019-05-18T05:30:29.261Z,79.56
2019-05-18T05:31:29.242Z,79.36
2019-05-18T05:32:29.244Z,79.66
2019-05-18T05:33:29.241Z,79.66
2019-05-18T05:34:29.219Z,78.75
2019-05-18T05:35:29.212Z,78.34
2019-05-18T05:36:29.201Z,78.95
2019-05-18T05:37:29.202Z,78.61
2019-05-18T05:38:29.211Z,78.71
2019-05-18T05:39:29.164Z,78.61
2019-05-18T05:40:29.204Z,78.20
2019-05-18T05:41:29.159Z,78.44
2019-05-18T05:42:29.123Z,79.52
2019-05-18T05:43:29.144Z,78.67
2019-05-18T05:44:29.135Z,77.45
2019-05-18T05:45:29.089Z,76.81
2019-05-18T05:46:29.103Z,77.22
2019-05-18T05:47:29.127Z,77.83
2019-05-18T05:48:29.119Z,76.27
2019-05-18T05:49:29.217Z,76.78
2019-05-18T05:50:35.878Z,75.96
2019-05-18T05:51:29.029Z,76.03
2019-05-18T05:52:29.017Z,75.82
2019-05-18T05:53:29.049Z,76.13
2019-05-18T05:54:29.022Z,74.81
2019-05-18T05:55:28.998Z,75.05
2019-05-18T05:56:28.980Z,75.76
2019-05-18T06:04:42.953Z,76.00
2019-05-18T06:05:43.953Z,75.76
2019-05-18T06:06:43.907Z,75.96
2019-05-18T06:07:43.902Z,76.06
2019-05-18T06:08:43.944Z,76.03
2019-05-18T06:09:43.895Z,75.59
2019-05-18T06:10:43.875Z,74.48
2019-05-18T06:11:43.903Z,74.57
2019-05-18T06:12:43.867Z,73.73
2019-05-18T06:13:43.834Z,73.12
2019-05-18T06:14:43.862Z,73.12
2019-05-18T06:15:43.826Z,73.43
2019-05-18T06:16:43.807Z,73.12
2019-05-18T06:17:43.843Z,72.52
2019-05-18T06:18:43.815Z,72.52
2019-05-18T06:19:43.800Z,72.72
2019-05-18T06:20:51.553Z,72.48
2019-05-18T06:21:43.740Z,72.68
2019-05-18T06:22:43.761Z,71.77
2019-05-18T06:23:43.754Z,71.26
2019-05-18T06:24:43.748Z,71.26
2019-05-18T06:25:43.691Z,72.81
2019-05-18T06:26:43.713Z,72.28
2019-05-18T06:27:43.681Z,72.78
2019-05-18T06:28:43.667Z,71.53
2019-05-18T06:29:43.691Z,71.64
2019-05-18T06:30:43.641Z,70.93
2019-05-18T06:31:43.633Z,70.89
2019-05-18T06:32:43.625Z,70.46
2019-05-18T06:33:43.616Z,68.54
2019-05-18T06:34:43.633Z,70.15
2019-05-18T06:35:43.597Z,69.45
2019-05-18T06:36:43.594Z,70.05
2019-05-18T06:37:43.569Z,70.25
2019-05-18T06:38:43.568Z,69.31
2019-05-18T06:39:43.565Z,68.51
2019-05-18T06:40:43.536Z,68.71
2019-05-18T06:41:43.562Z,68.27
2019-05-18T06:42:43.511Z,68.27
2019-05-18T06:43:43.529Z,68.51
2019-05-18T06:44:43.498Z,68.57
2019-05-18T06:45:43.486Z,68.60
2019-05-18T06:46:43.505Z,68.00
2019-05-18T06:47:43.467Z,68.30
2019-05-18T06:48:43.504Z,69.38
2019-05-18T06:49:43.480Z,67.97
2019-05-18T06:50:43.480Z,67.26
2019-05-18T06:51:43.419Z,68.04
2019-05-18T06:52:43.411Z,68.71
2019-05-18T06:53:43.431Z,67.36
2019-05-18T06:54:43.415Z,65.35
2019-05-18T06:55:43.400Z,65.65
2019-05-18T06:56:43.372Z,65.45
2019-05-18T06:57:43.364Z,66.96
2019-05-18T06:58:43.359Z,65.65
2019-05-18T06:59:43.371Z,66.46
2019-05-18T07:00:43.334Z,65.15
2019-05-18T07:01:43.354Z,65.15
2019-05-18T07:02:43.356Z,65.42
2019-05-18T07:03:45.126Z,65.25
2019-05-18T07:04:44.668Z,65.42
2019-05-18T07:05:43.278Z,65.29
2019-05-18T07:06:43.278Z,64.61
2019-05-18T07:07:43.255Z,66.02
2019-05-18T07:08:43.256Z,64.58
2019-05-18T07:09:43.242Z,64.58
2019-05-18T07:10:43.226Z,64.69
2019-05-18T07:11:43.245Z,64.78
2019-05-18T07:12:43.192Z,65.29
2019-05-18T07:13:43.183Z,64.18
2019-05-18T07:14:43.182Z,64.38
2019-05-18T07:15:43.192Z,63.57
2019-05-18T07:16:43.141Z,64.28
2019-05-18T07:17:43.139Z,64.38
2019-05-18T07:18:43.138Z,64.31
2019-05-18T07:19:43.161Z,64.75
2019-05-18T07:20:43.117Z,64.95
2019-05-18T07:21:43.093Z,65.01
2019-05-18T07:22:43.098Z,65.09
2019-05-18T07:23:43.968Z,64.58
2019-05-18T07:24:43.137Z,65.29
2019-05-18T07:25:43.056Z,63.95
2019-05-18T07:26:43.047Z,63.82
2019-05-18T07:27:43.051Z,62.21
2019-05-18T07:28:43.047Z,63.75
2019-05-18T07:29:43.029Z,64.58
2019-05-18T07:30:43.034Z,64.98
2019-05-18T07:31:43.011Z,64.65
2019-05-18T07:32:42.980Z,64.62
2019-05-18T07:33:42.979Z,63.59
2019-05-18T07:34:42.977Z,62.95
2019-05-18T07:35:43.123Z,63.56
2019-05-18T07:36:42.944Z,62.65
2019-05-18T07:37:42.937Z,62.52
2019-05-18T07:38:42.911Z,61.61
2019-05-18T07:39:42.901Z,61.71
2019-05-18T07:40:42.909Z,61.41
2019-05-18T07:41:46.951Z,62.68
2019-05-18T07:42:42.892Z,62.48
2019-05-18T07:43:42.863Z,63.51
2019-05-18T07:44:42.856Z,64.02
2019-05-18T07:45:42.857Z,63.51
2019-05-18T07:46:42.818Z,63.59
2019-05-18T07:47:42.814Z,62.65
2019-05-18T07:48:42.813Z,61.65
2019-05-18T07:49:42.793Z,62.35
2019-05-18T07:50:42.814Z,62.98
2019-05-18T07:51:42.797Z,64.09
2019-05-18T07:52:42.808Z,62.95
2019-05-18T07:53:42.744Z,62.82
2019-05-18T07:54:42.721Z,61.82
2019-05-18T07:55:42.784Z,61.88
2019-05-18T07:56:42.718Z,62.16
2019-05-18T07:57:42.712Z,60.85
2019-05-18T07:58:42.702Z,60.75
2019-05-18T07:59:42.696Z,60.85
2019-05-18T08:00:42.756Z,60.85
2019-05-18T08:01:42.664Z,61.05
2019-05-18T08:02:42.697Z,60.93
2019-05-18T08:03:42.669Z,60.93
2019-05-18T08:10:43.464Z,58.50
2019-05-18T08:11:41.591Z,58.18
2019-05-18T08:12:41.561Z,57.17
2019-05-18T08:13:41.624Z,57.28
2019-05-18T08:14:41.563Z,56.24
2019-05-18T08:15:41.550Z,56.05
2019-05-18T08:16:41.520Z,56.57
2019-05-18T08:17:41.531Z,57.17
2019-05-18T08:18:41.513Z,57.98
2019-05-18T08:19:41.507Z,57.28
2019-05-18T08:20:41.514Z,57.57
2019-05-18T08:21:52.728Z,57.55
2019-05-18T08:22:41.469Z,57.30
2019-05-18T08:23:41.469Z,58.11
2019-05-18T08:24:41.625Z,57.57
2019-05-18T08:25:41.431Z,57.15
2019-05-18T08:26:41.411Z,56.42
2019-05-18T08:27:41.385Z,56.05
2019-05-18T08:28:41.434Z,55.74
2019-05-18T08:29:41.443Z,56.17
2019-05-18T08:30:41.400Z,56.37
2019-05-18T08:31:41.371Z,57.05
2019-05-18T08:32:41.354Z,55.72
2019-05-18T08:33:41.321Z,55.37
2019-05-18T08:34:41.326Z,54.37
2019-05-18T08:35:41.316Z,56.07
2019-05-18T08:36:41.295Z,54.39
2019-05-18T08:37:41.289Z,55.40
2019-05-18T08:38:41.274Z,55.37
2019-05-18T08:39:41.298Z,56.10
2019-05-18T08:40:41.259Z,55.27
2019-05-18T08:41:41.241Z,54.85
2019-05-18T08:42:41.219Z,54.07
2019-05-18T08:43:41.214Z,53.67
2019-05-18T08:44:41.210Z,54.37
2019-05-18T08:45:41.205Z,54.35
2019-05-18T08:46:41.199Z,54.12
2019-05-18T08:47:41.210Z,54.22
2019-05-18T08:48:41.188Z,53.49
2019-05-18T08:49:41.160Z,53.52
2019-05-18T08:50:41.162Z,54.12
2019-05-18T08:51:41.133Z,53.59
2019-05-18T08:52:41.120Z,53.47
2019-05-18T08:53:41.125Z,53.37
2019-05-18T08:54:41.102Z,52.74
2019-05-18T08:55:41.131Z,53.27
2019-05-18T08:56:41.070Z,53.57
2019-05-18T08:57:41.062Z,53.57
2019-05-18T08:58:41.049Z,53.84
2019-05-18T08:59:41.064Z,52.74
2019-05-18T09:00:41.065Z,52.64
2019-05-18T09:01:41.040Z,52.84
2019-05-18T09:02:41.023Z,53.64
2019-05-18T09:03:41.008Z,53.27
2019-05-18T09:04:40.998Z,52.77
2019-05-18T09:05:40.985Z,52.80
2019-05-18T09:06:41.006Z,53.72
2019-05-18T09:07:40.950Z,54.39
2019-05-18T09:08:40.970Z,53.57
2019-05-18T09:09:40.936Z,52.04
2019-05-18T09:10:40.921Z,51.54
2019-05-18T09:11:40.934Z,52.69
2019-05-18T09:12:40.897Z,52.69
2019-05-18T09:13:40.949Z,53.59
2019-05-18T09:14:40.900Z,53.37
2019-05-18T09:15:40.882Z,51.97
2019-05-18T09:16:40.927Z,51.64
2019-05-18T09:17:40.874Z,51.97
2019-05-18T09:18:40.874Z,52.67
2019-05-18T09:19:40.929Z,51.89
2019-05-18T09:20:40.852Z,53.12
2019-05-18T09:21:40.856Z,52.19
2019-05-18T09:22:40.797Z,51.97
2019-05-18T09:23:40.822Z,52.19
2019-05-18T09:24:40.777Z,51.59
2019-05-18T09:25:40.800Z,52.69
2019-05-18T09:26:40.795Z,52.00
2019-05-18T09:27:40.747Z,51.17
2019-05-18T09:28:40.757Z,51.69
2019-05-18T09:29:40.747Z,51.74
2019-05-18T09:30:41.346Z,52.94
2019-05-18T09:31:40.757Z,52.14
2019-05-18T09:32:40.707Z,52.97
2019-05-18T09:33:40.704Z,53.39
2019-05-18T09:34:40.699Z,53.80
2019-05-18T09:35:40.734Z,53.69
2019-05-18T09:36:40.732Z,54.24
2019-05-18T09:37:40.640Z,53.02
2019-05-18T09:38:40.638Z,53.02
2019-05-18T09:39:40.645Z,53.72
2019-05-18T09:40:40.628Z,51.59
2019-05-18T09:41:40.618Z,50.37
2019-05-18T09:42:40.590Z,49.95
2019-05-18T09:43:40.575Z,50.12
2019-05-18T09:44:40.580Z,49.12
2019-05-18T09:45:40.589Z,49.12
2019-05-18T09:46:40.565Z,49.12
2019-05-18T09:47:40.570Z,49.65
2019-05-18T09:48:40.594Z,49.55
2019-05-18T09:49:40.579Z,49.65
2019-05-18T09:50:40.543Z,49.44
2019-05-18T09:51:40.503Z,49.00
2019-05-18T09:52:45.814Z,48.08
2019-05-18T09:53:51.265Z,48.48
2019-05-18T09:54:40.462Z,49.30
2019-05-18T09:55:40.451Z,48.78
2019-05-18T09:56:40.513Z,47.98
2019-05-18T09:57:40.493Z,49.10
2019-05-18T09:58:40.450Z,49.18
2019-05-18T09:59:40.455Z,48.75
2019-05-18T10:00:40.419Z,48.43
2019-05-18T10:01:40.403Z,47.75
2019-05-18T10:02:40.379Z,48.78
2019-05-18T10:03:40.366Z,49.08
2019-05-18T10:04:40.423Z,47.68
2019-05-18T10:05:40.362Z,49.48
2019-05-18T10:06:40.389Z,48.00
2019-05-18T10:07:40.351Z,48.10
2019-05-18T10:08:40.373Z,48.13
2019-05-18T10:09:40.333Z,48.75
2019-05-18T10:14:23.462Z,49.52
2019-05-18T10:15:24.422Z,48.70
2019-05-18T10:16:24.391Z,49.38
2019-05-18T10:17:24.430Z,48.48
2019-05-18T10:18:24.393Z,47.78
2019-05-18T10:19:24.364Z,48.05
2019-05-18T10:20:24.350Z,47.78
2019-05-18T10:21:24.357Z,47.60
2019-05-18T10:22:24.358Z,47.75
2019-05-18T10:23:24.317Z,49.44
2019-05-18T10:24:24.319Z,49.05
2019-05-18T10:25:24.300Z,49.40
2019-05-18T10:26:24.285Z,50.29
2019-05-18T10:27:24.349Z,49.15
2019-05-18T10:28:24.313Z,48.55
2019-05-18T10:29:24.271Z,49.12
2019-05-18T10:30:24.256Z,48.88
2019-05-18T10:31:24.243Z,48.97
2019-05-18T10:32:24.252Z,47.86
2019-05-18T10:33:24.240Z,47.53
2019-05-18T10:34:24.206Z,46.96
2019-05-18T10:35:24.309Z,47.78
2019-05-18T10:36:24.179Z,47.48
2019-05-18T10:37:24.198Z,47.66
2019-05-18T10:38:24.177Z,47.78
2019-05-18T10:39:24.146Z,47.88
2019-05-18T10:40:24.136Z,47.58
2019-05-18T10:41:24.146Z,47.75
2019-05-18T10:42:24.165Z,47.26
2019-05-18T10:43:24.143Z,46.54
2019-05-18T10:44:24.095Z,46.98
2019-05-18T10:45:24.083Z,47.78
2019-05-18T10:46:24.075Z,47.60
2019-05-18T10:47:24.075Z,47.58
2019-05-18T10:48:24.548Z,47.53
2019-05-18T10:49:24.045Z,46.51
2019-05-18T10:50:24.026Z,45.70
2019-05-18T10:51:24.018Z,44.98
2019-05-18T10:52:24.030Z,43.54
2019-05-18T10:53:28.677Z,44.36
2019-05-18T10:54:24.005Z,44.56
2019-05-18T10:55:23.978Z,44.34
2019-05-18T10:56:23.952Z,43.62
2019-05-18T10:57:23.967Z,42.86
2019-05-18T10:58:23.928Z,43.37
2019-05-18T10:59:23.916Z,44.08
2019-05-18T11:00:23.911Z,43.68
2019-05-18T11:01:23.922Z,43.93
2019-05-18T11:02:23.905Z,45.84
2019-05-18T11:03:23.912Z,45.72
2019-05-18T11:04:23.881Z,44.70
2019-05-18T11:05:23.862Z,43.76
2019-05-18T11:06:23.872Z,44.36
2019-05-18T11:07:23.846Z,43.35
2019-05-18T11:08:23.859Z,43.02
2019-05-18T11:09:23.820Z,43.10
2019-05-18T11:10:23.822Z,41.91
2019-05-18T11:11:23.801Z,41.30
2019-05-18T11:12:23.783Z,42.09
2019-05-18T11:13:23.803Z,41.61
2019-05-18T11:14:23.787Z,42.67
2019-05-18T11:15:23.802Z,44.16
2019-05-18T11:16:23.769Z,42.55
2019-05-18T11:17:23.774Z,42.93
2019-05-18T11:18:23.755Z,42.51
2019-05-18T11:19:23.733Z,41.30
2019-05-18T11:20:23.735Z,41.77
2019-05-18T11:21:23.687Z,42.09
2019-05-18T11:22:23.744Z,39.79
2019-05-18T11:23:23.711Z,42.17
2019-05-18T11:24:23.737Z,41.46
2019-05-18T11:25:23.676Z,39.97
2019-05-18T11:26:23.640Z,38.26
2019-05-18T11:27:23.683Z,38.74
2019-05-18T11:28:23.691Z,38.17
2019-05-18T11:29:24.387Z,39.65
2019-05-18T11:30:23.676Z,40.33
2019-05-18T11:31:23.605Z,40.23
2019-05-18T11:32:23.610Z,41.46
2019-05-18T11:33:23.626Z,41.73
2019-05-18T11:34:23.584Z,39.85
2019-05-18T11:35:23.575Z,40.11
2019-05-18T11:36:23.533Z,39.84
2019-05-18T11:37:23.557Z,41.87
2019-05-18T11:38:23.541Z,41.69
2019-05-18T11:39:23.532Z,42.55
2019-05-18T11:40:23.538Z,44.12
2019-05-18T11:41:23.495Z,43.20
2019-05-18T11:42:23.501Z,42.21
2019-05-18T11:43:23.471Z,44.02
2019-05-18T11:44:23.522Z,43.30
2019-05-18T11:45:23.500Z,43.48
2019-05-18T11:46:23.411Z,44.00
2019-05-18T11:47:23.404Z,44.20
2019-05-18T11:48:23.497Z,43.90
2019-05-18T11:49:23.422Z,43.60
2019-05-18T11:50:23.440Z,43.01
2019-05-18T11:51:23.506Z,42.72
2019-05-18T11:52:23.351Z,44.34
2019-05-18T11:53:23.414Z,43.84
2019-05-18T11:54:23.336Z,43.76
2019-05-18T11:55:23.382Z,43.96
2019-05-18T11:56:23.308Z,44.90
2019-05-18T11:57:23.336Z,45.40
2019-05-18T11:58:23.356Z,45.60
2019-05-18T11:59:23.297Z,45.70
2019-05-18T12:00:23.390Z,44.90
2019-05-18T12:01:23.260Z,45.57
2019-05-18T12:02:23.281Z,43.86
2019-05-18T12:03:23.311Z,44.48
2019-05-18T12:04:23.284Z,44.56
2019-05-18T12:05:23.236Z,43.02
2019-05-18T12:06:23.246Z,43.23
2019-05-18T12:07:23.177Z,42.53
2019-05-18T12:08:23.203Z,41.83
2019-05-18T12:09:23.206Z,42.03
2019-05-18T12:10:23.160Z,42.80
2019-05-18T12:11:23.142Z,42.63
2019-05-18T12:12:23.123Z,42.97
2019-05-18T12:13:23.126Z,43.46
2019-05-18T12:15:32.332Z,43.66
2019-05-18T12:16:33.306Z,44.26
2019-05-18T12:17:33.290Z,43.27
2019-05-18T12:18:33.285Z,43.19
2019-05-18T12:19:33.281Z,43.01
2019-05-18T12:20:33.283Z,43.41
2019-05-18T12:21:33.250Z,43.71
2019-05-18T12:22:33.239Z,43.71
2019-05-18T12:23:33.238Z,43.43
2019-05-18T12:24:33.237Z,43.63
2019-05-18T12:25:33.196Z,43.63
2019-05-18T12:26:33.217Z,43.45
2019-05-18T12:27:33.216Z,43.55
2019-05-18T12:28:33.179Z,43.73
2019-05-18T12:29:33.193Z,43.23
2019-05-18T12:30:33.153Z,43.65
2019-05-18T12:31:33.147Z,43.82
2019-05-18T12:32:33.150Z,43.82
2019-05-18T12:33:33.119Z,43.21
2019-05-18T12:34:33.128Z,42.63
2019-05-18T12:35:33.153Z,42.43
2019-05-18T12:36:33.107Z,43.05
2019-05-18T12:37:33.081Z,43.97
2019-05-18T12:38:33.061Z,43.57
2019-05-18T12:39:33.090Z,44.19
2019-05-18T12:40:33.045Z,44.59
2019-05-18T12:41:33.040Z,43.29
2019-05-18T12:42:33.049Z,43.47
2019-05-18T12:43:33.024Z,43.67
2019-05-18T12:44:33.005Z,43.67
2019-05-18T12:45:32.995Z,43.27
2019-05-18T12:46:32.986Z,43.05
2019-05-18T12:47:32.966Z,43.33
2019-05-18T12:48:32.967Z,43.43
2019-05-18T12:49:32.947Z,41.39
2019-05-18T12:50:32.922Z,40.88
2019-05-18T12:51:32.914Z,39.97
2019-05-18T12:52:32.913Z,39.25
2019-05-18T12:53:32.896Z,38.24
2019-05-18T12:54:45.527Z,39.43
2019-05-18T12:55:32.889Z,38.12
2019-05-18T12:56:32.886Z,38.52
2019-05-18T12:57:32.850Z,39.53
2019-05-18T12:58:32.833Z,39.51
2019-05-18T12:59:32.866Z,39.21
2019-05-18T13:00:32.855Z,39.01
2019-05-18T13:01:32.832Z,40.33
2019-05-18T13:02:32.815Z,39.92
2019-05-18T13:03:32.783Z,40.09
2019-05-18T13:04:32.835Z,39.87
2019-05-18T13:05:32.778Z,38.76
2019-05-18T13:06:32.776Z,37.95
2019-05-18T13:07:32.749Z,37.85
2019-05-18T13:08:32.742Z,38.85
2019-05-18T13:09:32.756Z,38.74
2019-05-18T13:10:32.732Z,39.53
2019-05-18T13:11:32.708Z,37.93
2019-05-18T13:12:32.693Z,39.14
2019-05-18T13:13:32.700Z,39.47
2019-05-18T13:14:32.692Z,39.55
2019-05-18T13:15:32.688Z,39.63
2019-05-18T13:16:32.657Z,38.34
2019-05-18T13:17:32.634Z,38.26
2019-05-18T13:18:32.622Z,40.15
2019-05-18T13:19:32.625Z,39.25
2019-05-18T13:20:32.643Z,39.36
2019-05-18T13:21:32.590Z,39.53
2019-05-18T13:22:32.575Z,37.83
2019-05-18T13:23:32.575Z,39.25
2019-05-18T13:24:44.226Z,37.75
2019-05-18T13:25:32.575Z,38.15
2019-05-18T13:26:32.539Z,38.58
2019-05-18T13:27:39.434Z,38.68
2019-05-18T13:28:32.521Z,38.81
2019-05-18T13:29:32.502Z,40.12
2019-05-18T13:30:32.509Z,39.92